Time;durP1;ratioP1;P1;durP2;ratioP2;P2;SDS_P1;SDS_P2;PMS_P1;PMS_P2;Temp;Humidity;BMP_temperature;BMP_pressure;BME280_temperature;BME280_humidity;BME280_pressure;Samples;Min_cycle;Max_cycle;Signal;HPM_P1;HPM_P2
2021/03/06 00:03:46;;;;;;;;;;;-1.70;99.90;;;-2.71;79.75;96897.94;10280207;28;1293;-89
2021/03/06 00:08:56;;;;;;;;;;;-1.80;99.90;;;-2.85;79.58;96888.91;10295537;28;2252;-90
2021/03/06 00:13:59;;;;;;;;;;;-1.70;99.90;;;-2.90;79.85;96893.81;10310033;28;1296;-84
2021/03/06 00:19:04;;;;;;;;;;;-1.00;99.90;;;-2.93;79.66;96896.75;10276696;28;2008;-86
2021/03/06 00:24:08;;;;;;;;;;;-0.60;99.90;;;-3.00;80.50;96895.75;10283609;28;2081;-87
2021/03/06 00:29:11;;;;;;;;;;;-0.70;99.90;;;-2.96;80.43;96888.38;10281511;28;2113;-90
2021/03/06 00:34:14;;;;;;;;;;;-1.90;99.90;;;-3.01;80.30;96896.75;10297206;28;1599;-88
2021/03/06 00:39:22;;;;;;;;;;;-1.40;99.90;;;-2.95;80.32;96885.56;10286139;28;2010;-89
2021/03/06 00:44:31;;;;;;;;;;;-2.00;99.90;;;-2.90;79.62;96893.00;10253963;28;2227;-87
2021/03/06 00:49:33;;;;;;;;;;;-0.20;99.90;;;-2.81;79.83;96892.81;10267778;28;1953;-88
2021/03/06 00:54:38;;;;;;;;;;;-0.50;99.90;;;-2.70;79.12;96890.88;10292239;28;2322;-87
2021/03/06 00:59:41;;;;;;;;;;;-1.80;99.90;;;-2.64;77.80;96896.31;10288748;28;1987;-87
2021/03/06 01:04:48;;;;;;;;;;;-1.70;99.90;;;-2.56;78.10;96892.84;10270913;28;2220;-87
2021/03/06 01:09:54;;;;;;;;;;;-1.10;99.90;;;-2.64;78.27;96891.03;10272376;28;2013;-89
2021/03/06 01:15:06;;;;;;;;;;;-1.60;99.90;;;-2.72;77.93;96893.69;10287560;28;2230;-87
2021/03/06 01:20:10;;;;;;;;;;;-1.40;99.90;;;-2.80;78.48;96883.97;10269959;28;2253;-88
2021/03/06 01:25:12;;;;;;;;;;;-0.70;99.90;;;-2.87;77.97;96877.69;10272675;28;1890;-89
2021/03/06 01:30:18;;;;;;;;;;;-1.50;99.90;;;-2.91;78.25;96875.56;10274085;28;1989;-87
2021/03/06 01:35:26;;;;;;;;;;;-0.20;99.90;;;-2.95;78.64;96875.06;10285367;28;2062;-87
2021/03/06 01:40:28;;;;;;;;;;;-0.80;99.90;;;-2.96;79.23;96873.41;10281343;28;1981;-87
2021/03/06 01:45:37;;;;;;;;;;;-0.70;99.90;;;-3.01;79.33;96866.00;10275561;28;1759;-89
2021/03/06 01:50:40;;;;;;;;;;;-1.60;99.90;;;-3.00;79.89;96856.28;10281008;28;1999;-88
2021/03/06 01:55:50;;;;;;;;;;;-2.00;99.90;;;-3.02;80.48;96858.28;10280340;28;1968;-88
2021/03/06 02:00:57;;;;;;;;;;;-2.10;99.90;;;-3.00;79.91;96861.56;10287051;28;1558;-89
2021/03/06 02:06:00;;;;;;;;;;;-0.90;99.90;;;-3.04;80.96;96849.72;10292582;28;1683;-85
2021/03/06 02:11:05;;;;;;;;;;;-2.00;99.90;;;-3.04;81.10;96860.25;10297956;28;1483;-87
2021/03/06 02:16:09;;;;;;;;;;;-1.50;99.90;;;-3.04;81.38;96855.00;10270352;28;2136;-89
2021/03/06 02:21:14;;;;;;;;;;;-0.70;99.90;;;-3.10;81.07;96856.47;10315254;28;2050;-92
2021/03/06 02:26:17;;;;;;;;;;;-0.60;99.90;;;-3.14;81.63;96856.94;10291880;28;2040;-90
2021/03/06 02:31:20;;;;;;;;;;;-0.70;99.90;;;-3.21;81.93;96858.56;10265036;28;1406;-88
2021/03/06 02:36:23;;;;;;;;;;;-0.70;99.90;;;-3.29;81.96;96852.31;10296776;28;1993;-87
2021/03/06 02:41:26;;;;;;;;;;;-1.60;99.90;;;-3.29;82.67;96846.22;10251522;28;2091;-86
2021/03/06 02:46:32;;;;;;;;;;;-2.10;99.90;;;-3.42;82.80;96841.44;10259608;28;1857;-87
2021/03/06 02:51:37;;;;;;;;;;;-0.40;99.90;;;-3.50;83.41;96844.00;10272755;28;2212;-89
2021/03/06 02:56:50;;;;;;;;;;;-1.20;99.90;;;-3.48;83.84;96846.50;10288739;28;2181;-90
2021/03/06 03:01:55;;;;;;;;;;;-2.30;99.90;;;-3.53;83.90;96841.72;10306903;28;1463;-88
2021/03/06 03:06:58;;;;;;;;;;;-0.60;99.90;;;-3.61;84.14;96854.84;10277451;28;1775;-89
2021/03/06 03:12:00;;;;;;;;;;;-2.70;99.90;;;-3.64;84.44;96853.34;10275088;28;1748;-90
2021/03/06 03:17:07;;;;;;;;;;;-1.50;99.90;;;-3.67;83.81;96869.44;10270817;28;2125;-86
2021/03/06 03:22:10;;;;;;;;;;;-0.80;99.90;;;-3.67;85.26;96868.63;10317637;28;1863;-88
2021/03/06 03:27:25;;;;;;;;;;;-1.60;99.90;;;-3.72;84.98;96868.25;10292556;28;1970;-88
2021/03/06 03:32:27;;;;;;;;;;;-2.60;99.90;;;-3.73;85.53;96869.25;10307070;28;1557;-87
2021/03/06 03:37:31;;;;;;;;;;;-2.00;99.90;;;-3.86;86.26;96859.16;10282772;28;1981;-90
2021/03/06 03:42:34;;;;;;;;;;;-2.80;99.90;;;-3.81;85.95;96855.09;10296652;28;2178;-86
2021/03/06 03:47:36;;;;;;;;;;;-1.50;99.90;;;-3.77;86.18;96852.13;10264604;28;2007;-87
2021/03/06 03:52:39;;;;;;;;;;;-2.80;99.90;;;-3.89;85.98;96844.53;10284733;28;1351;-89
2021/03/06 03:57:42;;;;;;;;;;;-2.30;99.90;;;-3.92;86.22;96849.28;10287526;28;1935;-88
2021/03/06 04:02:44;;;;;;;;;;;-2.90;99.90;;;-3.97;86.81;96852.38;10295757;28;2117;-89
2021/03/06 04:07:47;;;;;;;;;;;-3.00;99.90;;;-4.02;86.75;96849.38;10286823;28;1321;-88
2021/03/06 04:12:54;;;;;;;;;;;-3.00;99.90;;;-3.99;86.86;96859.59;10278745;28;1576;-88
2021/03/06 04:17:56;;;;;;;;;;;-1.80;99.90;;;-4.07;87.46;96862.19;10285992;28;1973;-89
2021/03/06 04:23:02;;;;;;;;;;;-1.20;99.90;;;-4.09;87.35;96869.38;10275306;28;2278;-87
2021/03/06 04:28:06;;;;;;;;;;;-1.40;99.90;;;-4.08;87.69;96874.47;10278857;28;2395;-88
2021/03/06 04:33:09;;;;;;;;;;;-1.40;99.90;;;-4.01;87.38;96868.59;10295327;28;2028;-87
2021/03/06 04:38:12;;;;;;;;;;;-0.90;99.90;;;-4.11;87.71;96882.66;10288130;28;2014;-90
2021/03/06 04:43:14;;;;;;;;;;;-1.30;99.90;;;-4.10;87.54;96888.75;10280106;28;2383;-87
2021/03/06 04:48:16;;;;;;;;;;;-3.00;99.90;;;-4.23;88.53;96883.91;10285906;28;2065;-88
2021/03/06 04:53:19;;;;;;;;;;;-1.60;99.90;;;-4.27;87.92;96884.34;10305595;28;2085;-88
2021/03/06 04:58:22;;;;;;;;;;;-1.10;99.90;;;-4.28;89.06;96893.22;10270476;28;2213;-89
2021/03/06 05:03:24;;;;;;;;;;;-1.70;99.90;;;-4.28;88.43;96893.22;10295497;28;2026;-91
2021/03/06 05:08:27;;;;;;;;;;;-3.30;99.90;;;-4.26;88.83;96899.13;10291640;28;2138;-89
2021/03/06 05:13:29;;;;;;;;;;;-2.50;99.90;;;-4.31;88.42;96890.91;10297792;28;2253;-92
2021/03/06 05:18:32;;;;;;;;;;;-3.30;99.90;;;-4.39;88.67;96894.28;10285379;28;2042;-92
2021/03/06 05:23:40;;;;;;;;;;;-3.30;99.90;;;-4.38;88.78;96901.19;10303878;28;1723;-91
2021/03/06 05:28:45;;;;;;;;;;;-1.20;99.90;;;-4.45;88.72;96905.41;10295922;28;2051;-92
2021/03/06 05:33:48;;;;;;;;;;;-1.90;99.90;;;-4.43;87.92;96903.44;10298997;28;2075;-89
2021/03/06 05:38:51;;;;;;;;;;;-1.70;99.90;;;-4.33;88.42;96896.28;10291482;28;2190;-90
2021/03/06 05:43:56;;;;;;;;;;;-1.30;99.90;;;-4.44;87.90;96897.38;10309430;28;1982;-85
2021/03/06 05:48:58;;;;;;;;;;;-1.70;99.90;;;-4.35;88.10;96895.63;10291045;28;1889;-86
2021/03/06 05:54:04;;;;;;;;;;;-1.80;99.90;;;-4.43;87.48;96898.19;10298777;28;2077;-88
2021/03/06 05:59:09;;;;;;;;;;;-2.30;99.90;;;-4.42;86.70;96892.78;10282128;28;2141;-89
2021/03/06 06:04:11;;;;;;;;;;;-1.40;99.90;;;-4.42;86.79;96895.41;10282088;28;2332;-88
2021/03/06 06:09:13;;;;;;;;;;;-2.40;99.90;;;-4.42;86.95;96903.28;10307189;28;2180;-89
2021/03/06 06:14:16;;;;;;;;;;;-2.10;99.90;;;-4.38;86.95;96906.44;10281207;28;2005;-89
2021/03/06 06:19:20;;;;;;;;;;;-3.30;99.90;;;-4.28;86.60;96911.59;10295505;28;2104;-90
2021/03/06 06:24:25;;;;;;;;;;;-3.40;99.90;;;-4.22;86.56;96905.72;10275828;28;2005;-88
2021/03/06 06:29:28;;;;;;;;;;;-1.00;99.90;;;-4.16;85.89;96911.19;10294112;28;2210;-87
2021/03/06 06:34:36;;;;;;;;;;;-1.20;99.90;;;-4.07;85.39;96917.34;10272296;28;2086;-88
2021/03/06 06:39:39;;;;;;;;;;;-2.60;99.90;;;-3.97;84.88;96919.84;10294475;28;1950;-84
2021/03/06 06:44:43;;;;;;;;;;;-1.40;99.90;;;-3.94;85.41;96930.06;10275410;28;2001;-86
2021/03/06 06:49:47;;;;;;;;;;;-1.60;99.90;;;-3.88;84.18;96932.03;10282487;28;1931;-86
2021/03/06 06:54:53;;;;;;;;;;;-1.10;99.90;;;-3.87;83.51;96931.91;10283690;28;2037;-86
2021/03/06 07:00:01;;;;;;;;;;;-2.90;99.90;;;-3.70;83.41;96931.97;10286803;28;2193;-88
2021/03/06 07:05:09;;;;;;;;;;;-2.30;99.90;;;-3.66;82.66;96934.16;10262726;28;1953;-85
2021/03/06 07:10:11;;;;;;;;;;;-2.60;99.90;;;-3.51;81.31;96931.75;10295623;28;1992;-87
2021/03/06 07:15:14;;;;;;;;;;;-2.60;99.90;;;-3.36;78.81;96924.94;10268618;28;2223;-87
2021/03/06 07:20:19;;;;;;;;;;;-2.40;99.90;;;-3.26;78.74;96932.66;10294573;28;2088;-87
2021/03/06 07:25:23;;;;;;;;;;;-0.50;99.90;;;-3.07;77.27;96931.59;10294675;28;1989;-87
2021/03/06 07:30:30;;;;;;;;;;;-0.50;99.90;;;-2.92;76.83;96945.78;10304961;28;2082;-86
2021/03/06 07:35:32;;;;;;;;;;;-2.10;99.90;;;-2.77;75.10;96941.53;10297660;28;2211;-86
2021/03/06 07:40:41;;;;;;;;;;;-0.40;99.90;;;-2.65;73.33;96931.53;10283252;28;1945;-86
2021/03/06 07:45:45;;;;;;;;;;;-1.80;99.90;;;-2.50;73.64;96936.94;10278821;28;2017;-87
2021/03/06 07:50:48;;;;;;;;;;;-0.20;99.90;;;-2.36;72.15;96938.94;10282013;28;2083;-86
2021/03/06 07:55:59;;;;;;;;;;;-0.90;99.90;;;-2.19;71.39;96951.13;10296513;28;1918;-86
2021/03/06 08:01:08;;;;;;;;;;;-0.20;99.90;;;-2.10;72.23;96954.59;10302599;28;2126;-83
2021/03/06 08:06:21;;;;;;;;;;;0.00;99.90;;;-1.92;70.66;96947.31;10282451;28;2020;-87
2021/03/06 08:11:34;;;;;;;;;;;0.70;99.90;;;-1.81;68.80;96959.31;10307105;28;1930;-87
2021/03/06 08:16:40;;;;;;;;;;;-0.30;99.90;;;-1.78;67.88;96956.38;10291208;28;1895;-84
2021/03/06 08:21:42;;;;;;;;;;;2.10;99.90;;;-1.69;67.73;96952.72;10293726;28;2065;-88
2021/03/06 08:26:51;;;;;;;;;;;0.80;99.90;;;-1.53;67.58;96956.28;10318217;28;2001;-85
2021/03/06 08:32:12;;;;;;;;;;;-0.70;99.90;;;-1.41;66.10;96962.84;10287491;28;2376;-83
2021/03/06 08:37:19;;;;;;;;;;;1.30;99.90;;;-1.30;65.65;96953.75;10270888;28;2039;-86
2021/03/06 08:42:25;;;;;;;;;;;1.40;99.90;;;-1.19;66.09;96964.78;10281381;28;1874;-85
2021/03/06 08:52:56;;;;;;;;;;;0.60;99.90;;;-0.92;62.91;96949.47;10287018;28;2285;-87
2021/03/06 08:58:01;;;;;;;;;;;1.20;99.90;;;-0.84;62.39;96946.78;10282408;28;2008;-87
2021/03/06 09:03:12;;;;;;;;;;;2.10;99.90;;;-0.79;62.04;96944.47;10295991;28;1537;-85
2021/03/06 09:08:20;;;;;;;;;;;0.00;99.90;;;-0.70;60.94;96954.00;10273649;28;1795;-86
2021/03/06 09:13:39;;;;;;;;;;;0.20;99.90;;;-0.59;60.57;96950.13;10282632;28;1745;-86
2021/03/06 09:18:49;;;;;;;;;;;0.50;99.90;;;-0.48;57.01;96951.53;10271824;28;1956;-87
2021/03/06 09:23:59;;;;;;;;;;;0.30;97.90;;;-0.39;58.13;96953.13;10290780;28;2093;-85
2021/03/06 09:29:03;;;;;;;;;;;2.00;97.90;;;-0.12;57.66;96931.44;10293738;28;1913;-86
2021/03/06 09:39:33;;;;;;;;;;;1.50;96.00;;;0.01;56.25;96941.41;10295966;28;2027;-85
2021/03/06 09:44:53;;;;;;;;;;;2.20;95.30;;;0.06;57.89;96954.09;10280776;28;1978;-84
2021/03/06 09:49:57;;;;;;;;;;;2.30;95.40;;;0.18;58.67;96939.44;10291325;28;1899;-87
2021/03/06 09:55:10;;;;;;;;;;;1.10;95.60;;;0.22;57.73;96944.19;10270497;28;2029;-85
2021/03/06 10:00:17;;;;;;;;;;;1.30;94.50;;;0.49;58.13;96929.53;10279379;28;1914;-86
2021/03/06 10:05:19;;;;;;;;;;;2.00;95.90;;;0.42;58.11;96938.38;10266429;28;2010;-88
2021/03/06 10:10:25;;;;;;;;;;;1.40;93.70;;;0.54;57.74;96937.75;10279878;28;2093;-86
2021/03/06 10:15:50;;;;;;;;;;;1.60;93.80;;;0.65;58.35;96935.66;10268931;28;1989;-88
2021/03/06 10:20:58;;;;;;;;;;;3.40;95.10;;;0.77;59.22;96935.03;10262546;28;1881;-89
2021/03/06 10:26:02;;;;;;;;;;;1.90;95.00;;;0.73;58.64;96932.91;10261996;28;2028;-87
2021/03/06 10:31:09;;;;;;;;;;;1.80;94.10;;;0.76;58.21;96921.94;10297469;28;2365;-83
2021/03/06 10:36:16;;;;;;;;;;;4.30;94.10;;;1.17;57.89;96919.63;10290476;28;2050;-84
2021/03/06 10:41:23;;;;;;;;;;;3.40;94.80;;;1.37;56.77;96917.19;10281084;28;2108;-84
2021/03/06 10:46:34;;;;;;;;;;;3.00;92.80;;;1.42;56.65;96914.78;10299602;28;2075;-90
2021/03/06 10:51:42;;;;;;;;;;;3.20;92.20;;;1.32;57.46;96916.91;10312603;28;1976;-87
2021/03/06 11:02:22;;;;;;;;;;;3.60;92.60;;;1.45;58.39;96909.09;10278174;28;2171;-86
2021/03/06 11:07:40;;;;;;;;;;;2.30;93.00;;;1.34;58.42;96913.09;10304234;28;2029;-86
2021/03/06 11:12:45;;;;;;;;;;;2.40;91.90;;;1.34;57.00;96906.97;10313065;28;2010;-86
2021/03/06 11:17:51;;;;;;;;;;;2.30;91.10;;;1.42;58.01;96916.63;10283160;28;2052;-84
2021/03/06 11:22:53;;;;;;;;;;;4.10;92.50;;;1.52;57.53;96917.94;10297658;28;1562;-86
2021/03/06 11:27:59;;;;;;;;;;;2.50;91.60;;;1.67;57.25;96906.47;10276377;28;2040;-87
2021/03/06 11:33:04;;;;;;;;;;;2.50;91.20;;;1.74;55.49;96907.34;10261687;28;2076;-86
2021/03/06 11:38:07;;;;;;;;;;;4.00;89.30;;;1.58;56.39;96898.63;10296250;28;1945;-86
2021/03/06 11:43:13;;;;;;;;;;;2.70;88.30;;;1.58;54.53;96877.44;10291937;28;2100;-87
2021/03/06 11:48:20;;;;;;;;;;;2.60;87.40;;;1.69;53.62;96883.25;10280053;28;2025;-83
2021/03/06 11:53:32;;;;;;;;;;;4.10;86.90;;;1.92;54.81;96881.22;10287999;28;1727;-85
2021/03/06 11:58:36;;;;;;;;;;;3.20;87.20;;;2.14;53.96;96858.09;10293081;28;2093;-87
2021/03/06 12:03:53;;;;;;;;;;;3.00;86.60;;;2.12;54.91;96855.66;10267551;28;2095;-86
2021/03/06 12:09:27;;;;;;;;;;;3.90;87.20;;;1.99;54.86;96847.59;10281797;28;2132;-88
2021/03/06 12:14:32;;;;;;;;;;;3.40;86.00;;;2.06;55.73;96845.00;10297134;28;2216;-86
2021/03/06 12:19:49;;;;;;;;;;;3.00;87.40;;;2.11;54.98;96837.28;10263032;28;1919;-85
2021/03/06 12:25:07;;;;;;;;;;;3.10;86.20;;;2.08;55.96;96837.66;10295604;28;2024;-86
2021/03/06 12:30:22;;;;;;;;;;;3.90;87.40;;;2.11;56.33;96835.44;10252256;28;2085;-87
2021/03/06 12:35:41;;;;;;;;;;;3.00;87.50;;;2.08;54.97;96824.38;10288678;28;2067;-88
2021/03/06 12:40:46;;;;;;;;;;;4.10;87.00;;;2.21;55.77;96834.25;10268079;28;1957;-84
2021/03/06 12:45:55;;;;;;;;;;;3.50;87.10;;;2.30;56.66;96825.97;10281867;28;2076;-86
2021/03/06 12:51:11;;;;;;;;;;;5.40;89.20;;;2.44;55.79;96810.94;10292039;28;2175;-84
2021/03/06 13:01:54;;;;;;;;;;;4.60;86.80;;;2.27;55.48;96812.25;10289001;28;2187;-87
2021/03/06 13:07:18;;;;;;;;;;;5.40;86.80;;;2.56;55.39;96809.34;10289140;28;1801;-86
2021/03/06 13:12:30;;;;;;;;;;;5.20;87.50;;;2.49;53.94;96800.53;10303651;28;1957;-86
2021/03/06 13:17:43;;;;;;;;;;;3.50;84.90;;;2.52;54.03;96794.81;10301380;28;1955;-87
2021/03/06 13:22:54;;;;;;;;;;;3.40;84.70;;;2.55;55.61;96775.88;10292198;28;1775;-88
2021/03/06 13:28:06;;;;;;;;;;;5.00;86.40;;;2.71;52.81;96772.03;10270178;28;2125;-86
2021/03/06 13:33:13;;;;;;;;;;;3.50;83.80;;;2.85;52.67;96775.53;10279664;28;1991;-84
2021/03/06 13:38:22;;;;;;;;;;;3.70;83.40;;;2.66;52.92;96767.31;10288293;28;1991;-87
2021/03/06 13:43:29;;;;;;;;;;;3.60;83.00;;;2.75;54.14;96761.84;10257487;28;2294;-86
2021/03/06 13:59:25;;;;;;;;;;;3.70;84.30;;;2.86;54.20;96750.63;10274817;28;2172;-87
2021/03/06 14:04:31;;;;;;;;;;;3.70;84.50;;;2.78;54.25;96753.47;10300573;28;2049;-87
2021/03/06 14:09:33;;;;;;;;;;;4.90;85.20;;;2.83;54.05;96748.38;10281866;28;1947;-83
2021/03/06 14:14:42;;;;;;;;;;;3.80;84.00;;;2.86;53.50;96753.28;10258149;28;1817;-87
2021/03/06 14:19:56;;;;;;;;;;;4.50;83.90;;;2.94;53.95;96747.78;10276944;28;2160;-86
2021/03/06 14:24:58;;;;;;;;;;;4.60;84.50;;;2.94;53.90;96735.34;10302314;28;2018;-84
2021/03/06 14:30:02;;;;;;;;;;;3.80;83.30;;;3.05;53.26;96733.06;10273310;28;1925;-86
2021/03/06 14:35:08;;;;;;;;;;;4.00;83.20;;;3.03;54.72;96727.97;10264826;28;2267;-87
2021/03/06 14:40:22;;;;;;;;;;;5.10;85.10;;;3.04;53.58;96729.59;10278640;28;2277;-86
2021/03/06 14:45:28;;;;;;;;;;;4.00;83.90;;;2.97;53.79;96728.78;10285333;28;2134;-85
2021/03/06 14:50:38;;;;;;;;;;;4.20;83.50;;;2.83;53.36;96717.31;10288987;28;2097;-85
2021/03/06 14:55:44;;;;;;;;;;;4.80;83.10;;;2.84;55.35;96710.16;10288616;28;2084;-87
2021/03/06 15:00:53;;;;;;;;;;;5.10;85.20;;;2.94;53.65;96707.97;10265834;28;1898;-85
2021/03/06 15:05:57;;;;;;;;;;;4.90;83.70;;;2.79;52.71;96702.81;10283362;28;1986;-85
2021/03/06 15:22:38;;;;;;;;;;;3.70;82.80;;;2.78;53.08;96703.84;10270347;28;1870;-87
2021/03/06 15:27:44;;;;;;;;;;;3.80;81.60;;;2.77;52.09;96698.72;10294125;28;1922;-88
2021/03/06 15:32:51;;;;;;;;;;;5.30;81.40;;;2.75;51.02;96701.59;10306783;28;1917;-85
2021/03/06 15:37:57;;;;;;;;;;;3.80;80.20;;;2.71;50.50;96709.13;10295921;28;2025;-87
2021/03/06 15:43:05;;;;;;;;;;;4.10;78.80;;;2.63;49.35;96696.06;10272581;28;1867;-85
2021/03/06 15:48:08;;;;;;;;;;;5.50;78.30;;;2.55;49.21;96690.13;10304833;28;1942;-85
2021/03/06 15:53:11;;;;;;;;;;;3.60;77.00;;;2.56;49.45;96689.91;10286638;28;2072;-88
2021/03/06 15:58:16;;;;;;;;;;;3.60;77.10;;;2.53;48.93;96685.00;10294407;28;2085;-86
2021/03/06 16:03:18;;;;;;;;;;;4.50;77.00;;;2.38;47.90;96692.31;10276240;28;2008;-87
2021/03/06 16:08:22;;;;;;;;;;;3.30;75.20;;;2.28;46.89;96692.66;10283038;28;2216;-87
2021/03/06 16:13:24;;;;;;;;;;;5.00;75.20;;;2.24;46.87;96688.78;10285046;28;2084;-86
2021/03/06 16:18:30;;;;;;;;;;;3.20;73.90;;;2.16;47.50;96683.63;10271335;28;2400;-86
2021/03/06 16:23:36;;;;;;;;;;;3.10;74.20;;;2.08;45.74;96679.34;10295990;28;2320;-88
2021/03/06 16:28:42;;;;;;;;;;;3.10;72.60;;;1.97;47.77;96681.72;10282341;28;1995;-85
2021/03/06 16:33:57;;;;;;;;;;;3.70;74.60;;;1.89;47.93;96685.38;10291637;28;1961;-85
2021/03/06 16:39:10;;;;;;;;;;;3.70;74.60;;;1.80;47.31;96678.59;10294629;28;2071;-84
2021/03/06 16:44:13;;;;;;;;;;;4.50;74.40;;;1.67;48.66;96682.00;10278130;28;2164;-87
2021/03/06 16:49:15;;;;;;;;;;;2.70;74.10;;;1.65;48.07;96683.19;10294912;28;2111;-88
2021/03/06 16:54:18;;;;;;;;;;;2.50;73.50;;;1.59;46.27;96685.63;10281877;28;2099;-87
2021/03/06 16:59:24;;;;;;;;;;;2.60;72.20;;;1.51;46.71;96695.53;10299213;28;1964;-88
2021/03/06 17:04:30;;;;;;;;;;;4.00;73.00;;;1.40;46.63;96698.72;10300664;28;1961;-86
2021/03/06 17:09:34;;;;;;;;;;;4.00;73.10;;;1.29;46.64;96700.91;10276820;28;2066;-90
2021/03/06 17:14:36;;;;;;;;;;;3.50;72.90;;;1.17;48.72;96709.56;10263803;28;2198;-86
2021/03/06 17:19:38;;;;;;;;;;;3.20;74.10;;;0.96;48.76;96708.59;10263630;28;1997;-85
2021/03/06 17:24:41;;;;;;;;;;;3.10;74.40;;;0.99;47.21;96713.50;10261318;28;2419;-87
2021/03/06 17:29:43;;;;;;;;;;;3.50;73.70;;;0.94;48.16;96720.38;10255498;28;2065;-87
2021/03/06 17:34:51;;;;;;;;;;;1.90;73.50;;;0.87;48.07;96724.78;10273096;28;2006;-89
2021/03/06 17:39:53;;;;;;;;;;;3.10;74.20;;;0.79;48.82;96728.38;10268419;28;2005;-86
2021/03/06 17:44:56;;;;;;;;;;;2.40;74.40;;;0.64;50.85;96733.72;10270533;28;1925;-89
2021/03/06 17:49:58;;;;;;;;;;;2.80;76.10;;;0.42;51.48;96732.88;10283351;28;2033;-86
2021/03/06 17:55:03;;;;;;;;;;;3.80;77.30;;;0.40;50.52;96737.53;10291119;28;2034;-85
2021/03/06 18:00:06;;;;;;;;;;;3.00;76.50;;;0.43;50.44;96742.44;10271268;28;1952;-85
2021/03/06 18:05:11;;;;;;;;;;;1.40;76.10;;;0.37;51.76;96745.81;10263907;28;2068;-88
2021/03/06 18:10:17;;;;;;;;;;;1.50;76.90;;;0.39;51.73;96743.84;10270980;28;2085;-86
2021/03/06 18:15:22;;;;;;;;;;;1.50;76.70;;;0.19;53.04;96738.31;10294722;28;2105;-88
2021/03/06 18:20:25;;;;;;;;;;;1.40;77.50;;;0.20;51.96;96732.00;10296724;28;1914;-88
2021/03/06 18:25:51;;;;;;;;;;;2.40;77.80;;;0.22;52.97;96734.47;10316495;28;1999;-88
2021/03/06 18:30:54;;;;;;;;;;;1.20;77.70;;;0.08;52.70;96724.75;10299082;28;1905;-88
2021/03/06 18:35:58;;;;;;;;;;;1.20;78.00;;;0.17;52.47;96718.34;10289707;28;2057;-87
2021/03/06 18:41:03;;;;;;;;;;;1.20;77.70;;;0.13;52.34;96719.72;10292296;28;2056;-89
2021/03/06 18:46:10;;;;;;;;;;;2.50;78.70;;;-0.08;55.21;96705.41;10292520;28;3791;-88
2021/03/06 18:51:13;;;;;;;;;;;1.10;79.20;;;-0.09;53.97;96709.06;10298556;28;2489;-86
2021/03/06 18:56:22;;;;;;;;;;;2.90;80.20;;;-0.17;54.85;96690.69;10302889;28;1907;-88
2021/03/06 19:01:25;;;;;;;;;;;2.80;80.50;;;-0.34;55.61;96694.50;10296685;28;2447;-87
2021/03/06 19:06:30;;;;;;;;;;;0.80;80.30;;;-0.30;55.19;96691.31;10276594;28;2043;-86
2021/03/06 19:11:38;;;;;;;;;;;1.00;80.40;;;-0.32;55.70;96693.34;10294291;28;1714;-86
2021/03/06 19:16:47;;;;;;;;;;;1.30;81.10;;;-0.40;55.92;96690.75;10292747;28;2547;-88
2021/03/06 19:21:52;;;;;;;;;;;0.70;81.30;;;-0.52;56.18;96681.66;10279815;28;1957;-87
2021/03/06 19:26:56;;;;;;;;;;;0.60;81.30;;;-0.47;57.19;96681.13;10291379;28;2260;-89
2021/03/06 19:31:58;;;;;;;;;;;2.10;83.50;;;-0.51;57.29;96682.47;10303324;28;1576;-87
2021/03/06 19:37:05;;;;;;;;;;;0.50;82.30;;;-0.49;57.66;96669.94;10270461;28;2056;-89
2021/03/06 19:42:18;;;;;;;;;;;0.60;83.30;;;-0.57;57.85;96669.00;10284002;28;1990;-86
2021/03/06 19:47:23;;;;;;;;;;;0.50;82.80;;;-0.64;59.38;96667.25;10287061;28;2041;-88
2021/03/06 19:52:30;;;;;;;;;;;0.50;84.20;;;-0.72;57.93;96664.72;10317309;28;2285;-89
2021/03/06 19:57:38;;;;;;;;;;;0.60;83.80;;;-0.72;58.09;96652.31;10296418;28;2060;-87
2021/03/06 20:02:48;;;;;;;;;;;1.60;84.00;;;-0.76;58.41;96653.72;10289544;28;1853;-87
2021/03/06 20:07:52;;;;;;;;;;;0.30;84.20;;;-0.86;58.63;96653.97;10297711;28;1934;-88
2021/03/06 20:12:57;;;;;;;;;;;0.30;84.40;;;-0.89;58.20;96643.78;10289906;28;2163;-88
2021/03/06 20:18:00;;;;;;;;;;;0.40;84.50;;;-0.99;59.45;96642.38;10311829;28;1899;-90
2021/03/06 20:23:09;;;;;;;;;;;0.60;85.00;;;-0.94;58.46;96642.69;10301327;28;2027;-87
2021/03/06 20:28:13;;;;;;;;;;;1.30;85.40;;;-1.10;59.47;96639.19;10303596;28;2005;-88
2021/03/06 20:33:18;;;;;;;;;;;0.80;85.40;;;-1.17;60.05;96630.34;10266101;28;1967;-88
2021/03/06 20:38:22;;;;;;;;;;;0.20;85.40;;;-1.18;61.04;96639.25;10279465;28;1972;-87
2021/03/06 20:43:25;;;;;;;;;;;1.60;86.60;;;-1.25;60.30;96637.53;10277058;28;1932;-86
2021/03/06 20:48:27;;;;;;;;;;;1.30;86.70;;;-1.39;61.19;96634.66;10293941;28;2037;-88
2021/03/06 20:53:31;;;;;;;;;;;1.50;87.70;;;-1.42;62.15;96642.91;10282753;28;1903;-86
2021/03/06 20:58:33;;;;;;;;;;;-0.40;87.10;;;-1.49;62.07;96636.72;10283466;28;1989;-88
2021/03/06 21:03:35;;;;;;;;;;;0.20;87.80;;;-1.54;61.79;96623.22;10287780;28;1977;-88
2021/03/06 21:08:38;;;;;;;;;;;1.30;88.40;;;-1.68;63.22;96626.66;10284436;28;1904;-87
2021/03/06 21:13:44;;;;;;;;;;;-0.50;88.10;;;-1.65;62.34;96636.84;10302106;28;1715;-88
2021/03/06 21:18:46;;;;;;;;;;;0.10;88.30;;;-1.61;61.95;96626.75;10270356;28;1974;-88
2021/03/06 21:23:49;;;;;;;;;;;0.60;88.80;;;-1.72;62.83;96614.81;10316598;28;1569;-89
2021/03/06 21:28:54;;;;;;;;;;;1.50;89.30;;;-1.76;62.98;96618.81;10277787;28;1989;-86
2021/03/06 21:33:57;;;;;;;;;;;1.20;89.50;;;-1.82;62.97;96615.06;10267452;28;1670;-87
2021/03/06 21:39:00;;;;;;;;;;;1.60;90.30;;;-1.81;62.66;96611.41;10273451;28;2026;-84
2021/03/06 21:44:06;;;;;;;;;;;-0.20;89.20;;;-1.87;63.25;96617.38;10278313;28;2040;-88
2021/03/06 21:49:09;;;;;;;;;;;1.90;90.60;;;-1.93;63.35;96611.00;10264869;28;2109;-88
2021/03/06 21:54:14;;;;;;;;;;;0.50;90.30;;;-1.99;63.52;96610.88;10274103;28;2004;-87
2021/03/06 21:59:17;;;;;;;;;;;-1.00;89.70;;;-2.09;65.53;96607.66;10275078;28;1960;-86
2021/03/06 22:04:19;;;;;;;;;;;-0.90;90.00;;;-2.13;64.54;96611.63;10269756;28;1959;-87
2021/03/06 22:09:21;;;;;;;;;;;0.50;90.90;;;-2.13;63.56;96601.09;10268276;28;2080;-87
2021/03/06 22:14:23;;;;;;;;;;;-1.10;90.00;;;-2.22;64.92;96593.25;10271561;28;2118;-87
2021/03/06 22:19:29;;;;;;;;;;;0.90;91.60;;;-2.19;64.60;96584.16;10287756;28;2071;-87
2021/03/06 22:24:31;;;;;;;;;;;0.50;91.50;;;-2.23;65.14;96581.06;10268064;28;1986;-91
2021/03/06 22:29:34;;;;;;;;;;;0.50;91.70;;;-2.36;65.61;96586.06;10275411;28;1967;-89
2021/03/06 22:34:40;;;;;;;;;;;-1.30;91.30;;;-2.29;65.51;96584.41;10266655;28;1990;-87
2021/03/06 22:39:44;;;;;;;;;;;0.40;92.20;;;-2.22;65.25;96587.16;10278534;28;1899;-89
2021/03/06 22:44:47;;;;;;;;;;;0.20;92.40;;;-2.22;65.12;96582.72;10298919;28;2127;-87
2021/03/06 22:49:49;;;;;;;;;;;-0.20;92.00;;;-2.32;65.48;96576.03;10296078;28;1917;-90
2021/03/06 22:54:55;;;;;;;;;;;-1.10;91.80;;;-2.41;66.91;96572.63;10297661;28;1979;-91
2021/03/06 23:00:03;;;;;;;;;;;-1.30;92.30;;;-2.47;66.49;96578.56;10303683;28;2081;-88
2021/03/06 23:05:10;;;;;;;;;;;-1.00;92.60;;;-2.42;67.02;96570.97;10304486;28;1890;-89
2021/03/06 23:10:15;;;;;;;;;;;-1.30;93.00;;;-2.35;66.16;96571.94;10291889;28;1516;-88
2021/03/06 23:15:17;;;;;;;;;;;-0.60;93.30;;;-2.50;67.15;96563.09;10264373;28;1973;-86
2021/03/06 23:20:20;;;;;;;;;;;1.00;94.20;;;-2.58;67.18;96569.25;10273183;28;1994;-88
2021/03/06 23:25:24;;;;;;;;;;;-0.90;93.60;;;-2.62;68.37;96569.75;10268048;28;2444;-87
2021/03/06 23:30:27;;;;;;;;;;;-0.20;94.70;;;-2.57;69.05;96560.34;10278272;28;2116;-89
2021/03/06 23:35:29;;;;;;;;;;;-0.30;95.40;;;-2.57;68.75;96556.91;10267327;28;1893;-88
2021/03/06 23:40:31;;;;;;;;;;;-1.50;94.90;;;-2.59;68.88;96556.25;10290915;28;1976;-88
2021/03/06 23:45:34;;;;;;;;;;;0.30;96.30;;;-2.59;68.85;96548.38;10279744;28;1934;-86
2021/03/06 23:50:37;;;;;;;;;;;-1.50;95.50;;;-2.75;69.33;96559.78;10267036;28;1843;-86
2021/03/06 23:55:40;;;;;;;;;;;-1.60;95.70;;;-2.65;69.13;96549.88;10275979;28;1932;-88
